x

Stonewall Bank - 20nm West Of Newport, Or (46050) Wave Buoy

10:50am - Fri 28th Aug 2015 All times are PDT. -7 hours from GMT.

  • Sig Wave height 3.6ft
  • Swell Direction
  • Peak Period 15s
  • Average Period 7s
  • Wind
    4mph
  • Sea Temp 60°f
  • Air Temp 60°f
  • Sea Pressure 1013.9mb
  • Stonewall Bank - 20nm West Of Newport, Or
  • Stonewall Bank - 20nm West Of Newport, Or

More Historic Weather Station data

Upgrade to MSW Pro to gain access to the past 30 days of data for over 8000 Wavebouys and Weather Stations around the globe.

Join Pro

Comparision Forecast

View Surf forecast
   
Fri 08/28 10:50am 3.5ft 15s 7s 4
mph
1013.9mb 60f 60f
9:50am 3.5ft 15s 7s 7 9 mph 1013.9mb 60f 60f
8:50am 3.5ft 15s 6s 7
mph
1014.1mb 60f 59f
7:50am 3.5ft 16s 6s 9 11 mph 1014.5mb 59f 59f
6:50am 3.5ft 15s 6s 9 11 mph 1015mb 58f 59f
5:50am 4.5ft 15s 6s 11 13 mph 1015.4mb 59f 59f
4:50am 4.5ft 7s 6s 13 16 mph 1015.5mb 59f 58f
3:50am 3.5ft 15s 5s 11 13 mph 1015.9mb 59f 58f
2:50am 3.5ft 15s 6s 13 16 mph 1016mb 59f 58f
1:50am 3.5ft 14s 6s 16 18 mph 1016.4mb 60f 59f
12:50am 3.5ft 14s 6s 11 13 mph 1016.4mb 60f 59f
Thu 08/27 11:50pm 3.5ft 15s 7s 13 16 mph 1016.6mb 60f 59f
10:50pm 3.5ft 16s 7s 13
mph
1016.5mb 61f 60f
9:50pm 4ft 15s 7s 13 16 mph 1016.5mb 61f 60f
8:50pm 3.5ft 15s 7s 11
mph
1016.6mb 61f 60f
7:50pm 3.5ft 13s 7s 7 9 mph 1016.3mb 61f 59f
6:50pm 3.5ft 13s 8s 7 9 mph 1016.7mb 62f 60f
5:50pm 3.5ft 15s 7s 7 9 mph 1016.9mb 62f 60f
4:50pm 3.5ft 15s 7s 7
mph
1017mb 62f 61f
3:50pm 3.5ft 15s 8s 4
mph
1017.2mb 62f 61f
2:50pm 3.5ft 15s 8s 4 7 mph 1017.3mb 62f 61f
1:50pm 4ft 15s 8s 2 4 mph 1018.1mb 62f 61f
11:50am 4ft 15s 8s 7
mph
1018.2mb 62f 60f
10:50am 4ft 15s 7s 7 9 mph 1018.1mb 61f 59f
9:50am 4.5ft 13s 7s 7 9 mph 1018.1mb 62f 59f
8:50am 3.5ft 9s 7s 7 9 mph 1017.9mb 62f 58f
6:50am 3.5ft 16s 8s 9
mph
1018.1mb 62f 55f
5:50am 3.5ft 14s 9s 7 9 mph 1018.3mb 61f 56f
4:50am 3.5ft 15s 8s 7
mph
1018.3mb 62f 56f
3:50am 3.5ft 15s 9s 4 7 mph 1018.4mb 61f 56f
2:50am 3.5ft 10s 8s 4 7 mph 1018.1mb 59f 56f
1:50am 3.5ft 15s 8s 4 7 mph 1018mb 59f 56f
12:50am 3.5ft 13s 8s 9
mph
1017.8mb 59f 56f
Wed 08/26 11:50pm 3.5ft 15s 8s 7 9 mph 1017.8mb 60f 57f
10:50pm 3.5ft 10s 7s 7 9 mph 1017.7mb 60f 57f
8:50pm 3.5ft 9s 7s 7
mph
1017.2mb 59f 58f
7:50pm 4ft 14s 8s 7 9 mph 1016.9mb 59f 58f
6:50pm 3.5ft 9s 8s 7 9 mph 1017mb 59f 57f
5:50pm 4ft 14s 8s 7
mph
1017.1mb 58f 57f
4:50pm 4ft 10s 8s 7 9 mph 1016.9mb 58f 57f
3:50pm 4ft 10s 8s 7
mph
1016.7mb 58f 58f
2:50pm 3.5ft 10s 7s 9 11 mph 1016.7mb 58f 58f
1:50pm 3.5ft 10s 7s 9
mph
1016.6mb 58f 57f
12:50pm 4ft 10s 8s 9
mph
1016.6mb 58f 57f
11:50am 4ft 9s 7s 9 11 mph 1016.3mb 58f 56f
10:50am 4ft 10s 7s 9
mph
1016.3mb 57f 56f
9:50am 4ft 9s 6s 4
mph
1016.5mb 57f 58f
8:50am 4.5ft 9s 7s 4
mph
1016.5mb 57f 58f
7:50am 4.5ft 10s 7s 2 4 mph 1015.9mb 57f 58f
6:50am 4.5ft 10s 7s 7 9 mph 1015.6mb 57f 60f
5:50am 4.5ft 10s 6s 7 9 mph 1015.5mb 57f 60f
4:50am 4ft 9s 6s 7 9 mph 1015.3mb 57f 60f
3:50am 4.5ft 10s 6s 9 11 mph 1015.4mb 57f 60f
2:50am 4ft 10s 6s 9 11 mph 1015.2mb 57f 60f
1:50am 4.5ft 10s 6s 11
mph
1015.2mb 57f 60f
12:50am 5ft 10s 6s 11 13 mph 1015.2mb 57f 61f
Tue 08/25 11:50pm 4.5ft 11s 6s 11 13 mph 1015.1mb 57f 61f
10:50pm 4.5ft 11s 6s 13
mph
1015.4mb 57f 61f
9:50pm 5ft 10s 6s 11 13 mph 1015.4mb 57f 61f
8:50pm 5ft 10s 6s 13 16 mph 1015.1mb 57f 61f
6:50pm 4.5ft 10s 6s 16 18 mph 1015mb 58f 62f
5:50pm 5ft 11s 6s 16 18 mph 1015.3mb 58f 62f
4:50pm 4.5ft 10s 6s 16 18 mph 1015.7mb 58f 62f
3:50pm 4.5ft 11s 6s 16 18 mph 1016.1mb 58f 62f
2:50pm 5ft 10s 6s 16 18 mph 1016.4mb 58f 61f
1:50pm 4.5ft 11s 7s 13 16 mph 1016.8mb 58f 61f
12:50pm 5ft 11s 7s 11 13 mph 1017.3mb 58f 60f
11:50am 4.5ft 11s 7s 11
mph
1017.6mb 57f 59f
10:50am 5ft 11s 7s 11
mph
1018mb 57f 58f
9:50am 5ft 10s 7s 7 9 mph 1018.1mb 57f 57f
8:50am 5ft 11s 7s 7
mph
1018.2mb 57f 58f
7:50am 5ft 11s 7s 9 11 mph 1018.3mb 57f 59f
6:50am 5ft 11s 7s 11 13 mph 1017.9mb 57f 59f
5:50am 5ft 10s 7s 11 13 mph 1017.9mb 57f 58f
4:50am 5ft 11s 7s 11 13 mph 1018mb 57f 58f
3:50am 5ft 11s 7s 11
mph
1018.2mb 57f 58f
2:50am 5.5ft 11s 7s 11 13 mph 1018.1mb 57f 59f
1:50am 5ft 11s 7s 11
mph
1018.4mb 57f 59f
12:50am 6ft 11s 7s 9 11 mph 1018.4mb 57f 59f
Mon 08/24 11:50pm 5ft 11s 6s 11 13 mph 1018.4mb 57f 60f
10:50pm 5.5ft 11s 7s 13 16 mph 1018.4mb 57f 60f
9:50pm 6ft 10s 7s 13 16 mph 1018.4mb 58f 60f
8:50pm 6ft 10s 6s 13 16 mph 1018.2mb 58f 60f
7:50pm 5ft 11s 6s 13 16 mph 1018.1mb 58f 61f